CCR8 weather

Conne River Seaplane Base
Newfoundland and Labrador, Canada

Public forecast

Using degrees Celsius for public forecast. Weather courtesy of forecast.io.

METAR (pilot weather report)

Closest report is Gander International Airport, 72.9 nm (134.9 km) NNE. Retrieved 2019/07/18 22:00 UTC (36 minutes ago):

CYQX 182200Z 29014G20KT 10SM -SHRA BKN046 BKN091 BKN110 17/08 A2962 RMK SC5AC1AC1 CVCTV CLD EMBD SLP032 DENSITY ALT 1200FT

TAF (pilot weather forecast)

Closest forecast is Gander International Airport, 72.9 nm (134.9 km) NNE. Retrieved 2019/07/18 18:39 UTC (4 hours ago):

TAF CYQX 181738Z 1818/1918 28015G25KT P6SM FEW040 SCT080 FM182000 28015G25KT P6SM SCT040 BKN060 TEMPO 1822/1904 P6SM -SHRA BKN040 OVC060 FM190400 28012G22KT P6SM FEW020 BKN040 FM191200 28015G25KT P6SM FEW040 RMK NXT FCST BY 190000Z